Pell City, Alabama
Current Conditions -  °F | °C
As of 3:35 PM on Friday 24 Oct 2014 (Local Time) from KASN Reporting Station
Clear Clear  
Wind Chill: 24°   Ceiling: Unl
Heat Index: 24°   Visibility: 10mi
Dew Point:   Wind: 5mph
Humidity: 32%   Direction: 340°NNW
Pressure: 30.03"   Gusts: NA
Location:  33.59°N, 86.29°W
Report Text: KASN 242035Z AUTO 34004KT 10SM CLR 24/06 A3003 RMK AO2 T02380061
Loading
Personal Weather Stations






























Interactive Weather Map
Tropical Storm Tracking
New forecast layout! Learn more

10-Day Weather Forecast

Advertisements
Track Severe Weather on mobile